createdAt,value
2023-07-16T00:00:22.324Z,20.37
2023-07-16T00:02:49.182Z,20.38
2023-07-16T00:05:15.877Z,20.44
2023-07-16T00:07:43.351Z,20.46
2023-07-16T00:10:10.326Z,20.46
2023-07-16T00:12:37.771Z,20.58
2023-07-16T00:15:07.781Z,20.44
2023-07-16T00:17:35.309Z,20.16
2023-07-16T00:20:02.093Z,20.30
2023-07-16T00:22:28.983Z,20.47
2023-07-16T00:24:55.584Z,20.49
2023-07-16T00:27:22.175Z,20.27
2023-07-16T00:29:48.742Z,20.28
2023-07-16T00:32:15.466Z,19.98
2023-07-16T00:34:42.076Z,19.81
2023-07-16T00:37:08.921Z,19.90
2023-07-16T00:39:35.539Z,19.99
2023-07-16T00:42:02.096Z,19.88
2023-07-16T00:44:28.651Z,19.83
2023-07-16T00:46:55.356Z,19.88
2023-07-16T00:49:22.031Z,19.98
2023-07-16T00:51:48.698Z,20.01
2023-07-16T00:54:15.507Z,20.05
2023-07-16T00:56:42.244Z,20.06
2023-07-16T00:59:10.123Z,20.00
2023-07-16T01:01:37.710Z,19.94
2023-07-16T01:04:04.584Z,20.05
2023-07-16T01:06:38.009Z,19.81
2023-07-16T01:09:10.710Z,19.74
2023-07-16T01:11:39.330Z,19.61
2023-07-16T01:14:07.984Z,19.75
2023-07-16T01:16:34.663Z,19.66
2023-07-16T01:19:01.285Z,19.77
2023-07-16T01:21:41.821Z,19.71
2023-07-16T01:24:26.671Z,19.43
2023-07-16T01:27:20.902Z,19.62
2023-07-16T01:29:52.701Z,19.90
2023-07-16T01:32:19.463Z,19.97
2023-07-16T01:34:46.585Z,19.91
2023-07-16T01:37:13.329Z,19.94
2023-07-16T01:39:41.022Z,19.96
2023-07-16T01:42:07.670Z,19.99
2023-07-16T01:44:34.372Z,19.93
2023-07-16T01:47:23.304Z,19.93
2023-07-16T01:49:49.966Z,19.82
2023-07-16T01:52:16.656Z,19.75
2023-07-16T01:54:43.412Z,19.86
2023-07-16T01:57:10.049Z,19.83
2023-07-16T01:59:36.762Z,19.86
2023-07-16T02:02:03.852Z,19.80
2023-07-16T02:04:30.497Z,20.00
2023-07-16T02:06:57.112Z,19.66
2023-07-16T02:09:24.201Z,19.62
2023-07-16T02:11:50.788Z,19.72
2023-07-16T02:14:17.493Z,19.54
2023-07-16T02:16:44.596Z,19.48
2023-07-16T02:19:11.280Z,19.59
2023-07-16T02:21:37.865Z,19.61
2023-07-16T02:24:04.725Z,19.34
2023-07-16T02:26:31.490Z,19.18
2023-07-16T02:28:58.911Z,19.26
2023-07-16T02:31:25.692Z,19.37
2023-07-16T02:33:52.482Z,19.47
2023-07-16T02:36:19.182Z,19.54
2023-07-16T02:38:46.109Z,19.56
2023-07-16T02:41:12.699Z,19.60
2023-07-16T02:43:39.290Z,19.84
2023-07-16T02:46:05.890Z,19.59
2023-07-16T02:48:32.580Z,19.70
2023-07-16T02:50:59.177Z,19.33
2023-07-16T02:53:25.775Z,19.29
2023-07-16T02:55:52.372Z,19.29
2023-07-16T02:58:18.990Z,19.30
2023-07-16T03:00:46.244Z,19.16
2023-07-16T03:03:13.042Z,19.02
2023-07-16T03:05:39.643Z,19.25
2023-07-16T03:08:06.301Z,19.35
2023-07-16T03:10:32.971Z,19.20
2023-07-16T03:12:59.559Z,19.18
2023-07-16T03:15:26.211Z,19.12
2023-07-16T03:17:52.970Z,19.26
2023-07-16T03:20:19.678Z,19.31
2023-07-16T03:22:46.379Z,19.27
2023-07-16T03:25:13.195Z,19.29
2023-07-16T03:27:39.937Z,19.38
2023-07-16T03:30:07.282Z,19.42
2023-07-16T03:32:46.535Z,19.09
2023-07-16T03:35:19.847Z,19.13
2023-07-16T03:37:46.470Z,18.98
2023-07-16T03:40:27.048Z,18.97
2023-07-16T03:42:54.221Z,19.12
2023-07-16T03:45:20.960Z,19.04
2023-07-16T03:47:47.655Z,19.14
2023-07-16T03:50:14.387Z,19.16
2023-07-16T03:52:41.048Z,19.16
2023-07-16T03:55:08.279Z,18.99
2023-07-16T03:57:34.856Z,19.06
2023-07-16T04:00:01.679Z,18.94
2023-07-16T04:02:28.750Z,19.09
2023-07-16T04:04:55.488Z,18.95
2023-07-16T04:07:22.114Z,18.98
2023-07-16T04:09:48.708Z,19.11
2023-07-16T04:12:15.412Z,18.93
2023-07-16T04:14:42.008Z,18.92
2023-07-16T04:17:08.758Z,18.86
2023-07-16T04:19:35.470Z,18.96
2023-07-16T04:22:02.529Z,18.89
2023-07-16T04:24:29.101Z,18.85
2023-07-16T04:26:55.786Z,18.80
2023-07-16T04:29:23.077Z,18.91
2023-07-16T04:31:49.766Z,19.10
2023-07-16T04:34:16.376Z,18.87
2023-07-16T04:36:44.217Z,18.85
2023-07-16T04:39:10.847Z,18.87
2023-07-16T04:41:37.922Z,19.00
2023-07-16T04:44:05.544Z,19.17
2023-07-16T04:46:32.272Z,19.15
2023-07-16T04:48:58.897Z,19.19
2023-07-16T04:51:25.495Z,19.14
2023-07-16T04:53:52.685Z,19.07
2023-07-16T04:56:19.659Z,18.87
2023-07-16T04:58:46.568Z,18.84
2023-07-16T05:01:13.269Z,18.77
2023-07-16T05:03:40.007Z,18.80
2023-07-16T05:06:06.907Z,18.79
2023-07-16T05:08:33.632Z,18.82
2023-07-16T05:11:00.426Z,18.77
2023-07-16T05:13:27.467Z,18.81
2023-07-16T05:15:54.361Z,18.84
2023-07-16T05:18:22.421Z,18.85
2023-07-16T05:20:50.116Z,18.95
2023-07-16T05:23:16.956Z,19.13
2023-07-16T05:25:48.388Z,19.03
2023-07-16T05:28:16.044Z,19.21
2023-07-16T05:30:42.868Z,19.28
2023-07-16T05:33:10.819Z,19.19
2023-07-16T05:35:37.533Z,19.12
2023-07-16T05:38:04.172Z,18.98
2023-07-16T05:40:30.768Z,19.05
2023-07-16T05:42:57.330Z,19.07
2023-07-16T05:45:24.543Z,19.27
2023-07-16T05:47:51.172Z,19.17
2023-07-16T05:50:17.872Z,19.19
2023-07-16T05:52:44.507Z,19.28
2023-07-16T05:55:11.121Z,19.08
2023-07-16T05:57:37.676Z,19.15
2023-07-16T06:00:06.019Z,19.08
2023-07-16T06:02:32.629Z,19.19
2023-07-16T06:04:59.202Z,19.23
2023-07-16T06:07:25.763Z,19.19
2023-07-16T06:09:52.387Z,19.31
2023-07-16T06:12:18.956Z,19.35
2023-07-16T06:14:45.593Z,19.48
2023-07-16T06:17:12.205Z,19.63
2023-07-16T06:19:38.767Z,19.66
2023-07-16T06:22:05.573Z,19.63
2023-07-16T06:24:32.225Z,19.85
2023-07-16T06:26:58.818Z,19.71
2023-07-16T06:29:25.421Z,19.84
2023-07-16T06:32:00.014Z,19.86
2023-07-16T06:34:26.922Z,19.57
2023-07-16T06:36:53.673Z,19.66
2023-07-16T06:39:20.364Z,19.76
2023-07-16T06:41:47.041Z,19.87
2023-07-16T06:44:13.742Z,19.96
2023-07-16T06:46:40.458Z,19.66
2023-07-16T06:49:08.253Z,19.79
2023-07-16T06:51:34.834Z,19.86
2023-07-16T06:54:01.801Z,20.11
2023-07-16T06:56:28.457Z,20.09
2023-07-16T06:58:55.049Z,20.02
2023-07-16T07:01:22.082Z,20.07
2023-07-16T07:03:49.021Z,20.19
2023-07-16T07:06:15.868Z,19.93
2023-07-16T07:08:42.852Z,20.24
2023-07-16T07:11:09.479Z,20.30
2023-07-16T07:13:36.078Z,20.38
2023-07-16T07:16:02.879Z,20.03
2023-07-16T07:18:29.519Z,20.27
2023-07-16T07:20:56.231Z,20.04
2023-07-16T07:23:23.031Z,20.07
2023-07-16T07:25:53.276Z,20.26
2023-07-16T07:28:20.938Z,20.38
2023-07-16T07:30:47.707Z,20.50
2023-07-16T07:33:14.550Z,20.38
2023-07-16T07:35:41.120Z,20.47
2023-07-16T07:38:07.752Z,20.39
2023-07-16T07:40:34.372Z,20.36
2023-07-16T07:43:01.283Z,20.50
2023-07-16T07:45:27.927Z,20.55
2023-07-16T07:47:54.660Z,20.55
2023-07-16T07:50:21.700Z,20.50
2023-07-16T07:52:48.309Z,20.45
2023-07-16T07:55:15.116Z,20.49
2023-07-16T07:57:41.779Z,20.62
2023-07-16T08:00:12.844Z,20.69
2023-07-16T08:02:40.252Z,20.70
2023-07-16T08:05:07.766Z,20.77
2023-07-16T08:07:34.737Z,20.79
2023-07-16T08:10:01.461Z,20.76
2023-07-16T08:12:28.191Z,20.82
2023-07-16T08:14:54.754Z,20.96
2023-07-16T08:17:23.938Z,20.94
2023-07-16T08:19:51.072Z,21.06
2023-07-16T08:22:17.742Z,20.92
2023-07-16T08:24:44.329Z,21.07
2023-07-16T08:27:10.929Z,21.09
2023-07-16T08:29:38.013Z,21.03
2023-07-16T08:32:05.502Z,21.06
2023-07-16T08:34:32.119Z,20.99
2023-07-16T08:36:58.853Z,21.13
2023-07-16T08:39:26.627Z,21.24
2023-07-16T08:41:54.457Z,21.30
2023-07-16T08:44:21.581Z,21.40
2023-07-16T08:46:48.708Z,21.30
2023-07-16T08:49:20.013Z,21.26
2023-07-16T08:51:50.418Z,21.45
2023-07-16T08:54:18.537Z,21.36
2023-07-16T08:56:45.401Z,21.46
2023-07-16T08:59:12.145Z,21.50
2023-07-16T09:01:39.133Z,21.59
2023-07-16T09:04:05.729Z,21.49
2023-07-16T09:06:32.538Z,21.65
2023-07-16T09:08:59.505Z,21.77
2023-07-16T09:11:26.248Z,21.73
2023-07-16T09:13:52.865Z,21.88
2023-07-16T09:16:20.216Z,21.82
2023-07-16T09:18:47.002Z,21.78
2023-07-16T09:21:13.812Z,21.73
2023-07-16T09:23:42.752Z,21.83
2023-07-16T09:26:09.949Z,21.87
2023-07-16T09:28:36.571Z,21.85
2023-07-16T09:31:08.991Z,21.98
2023-07-16T09:33:35.907Z,21.91
2023-07-16T09:36:04.948Z,22.01
2023-07-16T09:38:33.054Z,22.24
2023-07-16T09:41:00.613Z,22.35
2023-07-16T09:43:27.244Z,22.33
2023-07-16T09:45:54.000Z,22.36
2023-07-16T09:48:20.888Z,22.45
2023-07-16T09:50:53.442Z,22.54
2023-07-16T09:53:22.178Z,22.42
2023-07-16T09:55:50.476Z,22.40
2023-07-16T09:58:20.844Z,22.67
2023-07-16T10:00:49.744Z,22.59
2023-07-16T10:03:17.849Z,22.54
2023-07-16T10:05:44.993Z,22.46
2023-07-16T10:08:21.178Z,22.49
2023-07-16T10:10:57.024Z,22.53
2023-07-16T10:13:25.274Z,22.74
2023-07-16T10:15:53.576Z,22.83
2023-07-16T10:18:28.716Z,22.94
2023-07-16T10:20:57.426Z,22.88
2023-07-16T10:23:25.188Z,22.72
2023-07-16T10:26:07.127Z,22.88
2023-07-16T10:28:34.954Z,23.02
2023-07-16T10:31:01.820Z,23.03
2023-07-16T10:33:28.548Z,22.80
2023-07-16T10:35:58.140Z,22.96
2023-07-16T10:38:25.396Z,23.04
2023-07-16T10:40:52.281Z,22.94
2023-07-16T10:43:19.399Z,23.05
2023-07-16T10:45:49.175Z,22.85
2023-07-16T10:48:16.504Z,23.05
2023-07-16T10:50:43.298Z,23.11
2023-07-16T10:53:10.606Z,23.25
2023-07-16T10:55:39.383Z,23.33
2023-07-16T10:58:08.234Z,23.21
2023-07-16T11:00:39.212Z,23.21
2023-07-16T11:03:06.131Z,23.22
2023-07-16T11:05:32.848Z,23.37
2023-07-16T11:07:59.515Z,23.46
2023-07-16T11:10:29.959Z,23.53
2023-07-16T11:12:57.125Z,23.65
2023-07-16T11:15:42.214Z,23.42
2023-07-16T11:18:08.908Z,23.46
2023-07-16T11:20:35.611Z,23.45
2023-07-16T11:23:02.819Z,23.81
2023-07-16T11:25:30.059Z,23.82
2023-07-16T11:27:57.563Z,23.75
2023-07-16T11:30:25.872Z,23.83
2023-07-16T11:32:53.057Z,23.66
2023-07-16T11:35:21.020Z,23.89
2023-07-16T11:37:48.383Z,23.80
2023-07-16T11:40:20.132Z,23.71
2023-07-16T11:42:47.728Z,24.02
2023-07-16T11:45:26.766Z,24.28
2023-07-16T11:47:53.793Z,24.10
2023-07-16T11:50:20.592Z,24.10
2023-07-16T11:52:55.243Z,24.06
2023-07-16T11:55:21.843Z,24.11
2023-07-16T11:57:48.517Z,24.16
2023-07-16T12:00:15.896Z,24.19
2023-07-16T12:02:42.503Z,24.20
2023-07-16T12:05:10.637Z,24.14
2023-07-16T12:07:39.564Z,24.11
2023-07-16T12:10:07.946Z,24.17
2023-07-16T12:12:39.468Z,24.24
2023-07-16T12:15:07.773Z,24.42
2023-07-16T12:17:34.752Z,24.46
2023-07-16T12:20:02.208Z,24.77
2023-07-16T12:22:28.876Z,24.57
2023-07-16T12:24:55.555Z,24.47
2023-07-16T12:27:22.973Z,24.56
2023-07-16T12:29:49.687Z,24.82
2023-07-16T12:32:17.201Z,24.65
2023-07-16T12:34:43.879Z,24.74
2023-07-16T12:37:10.760Z,24.95
2023-07-16T12:39:38.021Z,24.88
2023-07-16T12:42:04.872Z,24.71
2023-07-16T12:44:31.633Z,24.68
2023-07-16T12:46:58.360Z,24.83
2023-07-16T12:49:25.139Z,24.99
2023-07-16T12:51:51.826Z,25.11
2023-07-16T12:54:18.572Z,24.89
2023-07-16T12:56:45.139Z,25.10
2023-07-16T12:59:12.251Z,25.16
2023-07-16T13:01:38.990Z,25.35
2023-07-16T13:04:05.620Z,25.41
2023-07-16T13:06:32.338Z,25.41
2023-07-16T13:08:58.942Z,25.15
2023-07-16T13:11:25.679Z,24.99
2023-07-16T13:13:53.096Z,25.05
2023-07-16T13:16:20.259Z,25.00
2023-07-16T13:18:47.242Z,25.21
2023-07-16T13:21:14.026Z,25.37
2023-07-16T13:23:40.661Z,25.40
2023-07-16T13:26:07.269Z,25.50
2023-07-16T13:28:33.935Z,25.57
2023-07-16T13:31:00.821Z,25.50
2023-07-16T13:33:27.661Z,25.53
2023-07-16T13:35:54.250Z,25.56
2023-07-16T13:38:21.244Z,25.64
2023-07-16T13:40:47.839Z,25.66
2023-07-16T13:43:14.680Z,25.50
2023-07-16T13:45:41.400Z,25.51
2023-07-16T13:48:08.033Z,25.50
2023-07-16T13:50:34.749Z,25.50
2023-07-16T13:53:02.662Z,25.53
2023-07-16T13:55:29.872Z,25.65
2023-07-16T13:57:56.926Z,25.67
2023-07-16T14:00:24.381Z,25.77
2023-07-16T14:02:51.519Z,25.84
2023-07-16T14:05:18.267Z,25.89
2023-07-16T14:07:44.865Z,26.02
2023-07-16T14:10:11.635Z,26.23
2023-07-16T14:12:38.331Z,26.28
2023-07-16T14:15:05.840Z,26.31
2023-07-16T14:17:32.497Z,26.29
2023-07-16T14:19:59.171Z,26.38
2023-07-16T14:22:28.821Z,26.47
2023-07-16T14:24:55.719Z,26.62
2023-07-16T14:27:22.516Z,26.66
2023-07-16T14:30:04.221Z,26.79
2023-07-16T14:32:33.126Z,26.78
2023-07-16T14:35:01.225Z,26.95
2023-07-16T14:37:28.054Z,26.92
2023-07-16T14:39:54.680Z,26.88
2023-07-16T14:42:21.307Z,26.89
2023-07-16T14:44:48.233Z,26.96
2023-07-16T14:47:14.860Z,27.13
2023-07-16T14:49:41.482Z,27.15
2023-07-16T14:52:08.098Z,27.26
2023-07-16T14:54:37.255Z,27.39
2023-07-16T14:57:04.533Z,27.60
2023-07-16T14:59:31.222Z,28.06
2023-07-16T15:01:58.035Z,28.44
2023-07-16T15:04:24.678Z,28.50
2023-07-16T15:06:52.466Z,28.62
2023-07-16T15:09:19.111Z,28.91
2023-07-16T15:11:45.741Z,28.78
2023-07-16T15:14:13.425Z,29.32
2023-07-16T15:16:40.664Z,29.65
2023-07-16T15:19:09.177Z,29.57
2023-07-16T15:21:38.735Z,29.20
2023-07-16T15:24:06.518Z,29.90
2023-07-16T15:26:33.149Z,29.96
2023-07-16T15:29:00.307Z,29.21
2023-07-16T15:31:30.560Z,29.22
2023-07-16T15:33:57.984Z,29.42
2023-07-16T15:36:27.178Z,29.54
2023-07-16T15:38:54.214Z,29.87
2023-07-16T15:41:21.170Z,30.61
2023-07-16T15:43:50.078Z,30.10
2023-07-16T15:46:19.092Z,29.70
2023-07-16T15:48:46.902Z,29.95
2023-07-16T15:51:14.088Z,29.79
2023-07-16T15:53:41.997Z,29.49
2023-07-16T15:56:11.836Z,29.36
2023-07-16T15:58:39.807Z,29.61
2023-07-16T16:01:07.389Z,29.58
2023-07-16T16:03:34.447Z,30.08
2023-07-16T16:06:01.204Z,30.50
2023-07-16T16:08:28.729Z,30.79
2023-07-16T16:10:55.400Z,30.58
2023-07-16T16:13:24.221Z,30.58
2023-07-16T16:15:51.417Z,30.96
2023-07-16T16:18:18.639Z,30.68
2023-07-16T16:20:47.905Z,30.89
2023-07-16T16:23:14.988Z,31.29
2023-07-16T16:25:41.765Z,31.45
2023-07-16T16:28:10.793Z,32.38
2023-07-16T16:30:39.782Z,32.00
2023-07-16T16:33:06.701Z,31.26
2023-07-16T16:35:42.126Z,31.39
2023-07-16T16:38:09.964Z,31.25
2023-07-16T16:40:39.199Z,31.11
2023-07-16T16:43:06.456Z,31.52
2023-07-16T16:45:35.001Z,30.84
2023-07-16T16:48:05.072Z,31.66
2023-07-16T16:50:32.032Z,32.11
2023-07-16T16:53:02.648Z,32.09
2023-07-16T16:55:29.319Z,31.38
2023-07-16T16:57:56.738Z,31.76
2023-07-16T17:00:23.643Z,31.83
2023-07-16T17:02:50.734Z,30.28
2023-07-16T17:05:17.547Z,31.39
2023-07-16T17:07:44.289Z,31.64
2023-07-16T17:10:11.357Z,31.69
2023-07-16T17:12:39.639Z,31.97
2023-07-16T17:15:07.686Z,30.99
2023-07-16T17:17:34.550Z,31.47
2023-07-16T17:20:02.174Z,32.02
2023-07-16T17:22:29.392Z,32.10
2023-07-16T17:24:56.062Z,32.18
2023-07-16T17:27:22.707Z,31.29
2023-07-16T17:29:50.021Z,31.22
2023-07-16T17:32:17.402Z,31.70
2023-07-16T17:34:44.114Z,31.41
2023-07-16T17:37:11.284Z,30.58
2023-07-16T17:39:38.988Z,29.57
2023-07-16T17:42:06.298Z,30.24
2023-07-16T17:44:33.578Z,30.32
2023-07-16T17:47:00.426Z,30.09
2023-07-16T17:49:27.531Z,30.07
2023-07-16T17:51:55.180Z,30.15
2023-07-16T17:54:25.167Z,29.77
2023-07-16T17:56:53.420Z,28.88
2023-07-16T17:59:23.635Z,29.12
2023-07-16T18:01:51.595Z,28.83
2023-07-16T18:04:20.376Z,29.15
2023-07-16T18:06:47.519Z,29.24
2023-07-16T18:09:15.387Z,28.23
2023-07-16T18:11:45.968Z,28.05
2023-07-16T18:14:15.010Z,28.52
2023-07-16T18:16:42.519Z,28.49
2023-07-16T18:19:12.312Z,27.89
2023-07-16T18:21:45.897Z,27.82
2023-07-16T18:24:23.210Z,27.61
2023-07-16T18:26:49.831Z,27.98
2023-07-16T18:29:16.422Z,27.75
2023-07-16T18:31:43.267Z,27.87
2023-07-16T18:34:09.964Z,27.88
2023-07-16T18:36:36.641Z,27.87
2023-07-16T18:39:06.666Z,27.74
2023-07-16T18:41:33.681Z,27.31
2023-07-16T18:44:00.290Z,27.00
2023-07-16T18:46:27.071Z,26.99
2023-07-16T18:48:53.725Z,26.85
2023-07-16T18:51:20.324Z,26.69
2023-07-16T18:53:46.946Z,26.66
2023-07-16T18:56:14.541Z,26.65
2023-07-16T18:58:41.242Z,26.49
2023-07-16T19:01:08.951Z,26.43
2023-07-16T19:03:35.902Z,26.28
2023-07-16T19:06:03.157Z,25.91
2023-07-16T19:08:30.038Z,25.79
2023-07-16T19:10:56.668Z,25.80
2023-07-16T19:13:23.261Z,25.69
2023-07-16T19:15:49.920Z,25.73
2023-07-16T19:18:18.737Z,25.86
2023-07-16T19:20:47.026Z,25.62
2023-07-16T19:23:13.923Z,25.68
2023-07-16T19:25:40.925Z,25.59
2023-07-16T19:28:07.756Z,25.59
2023-07-16T19:30:34.402Z,25.62
2023-07-16T19:33:01.186Z,25.52
2023-07-16T19:35:28.636Z,25.38
2023-07-16T19:37:56.644Z,25.33
2023-07-16T19:40:23.415Z,25.19
2023-07-16T19:42:49.989Z,25.17
2023-07-16T19:45:16.706Z,25.29
2023-07-16T19:47:43.371Z,25.16
2023-07-16T19:50:10.740Z,25.19
2023-07-16T19:52:37.365Z,25.17
2023-07-16T19:55:04.855Z,25.14
2023-07-16T19:57:35.886Z,25.00
2023-07-16T20:00:12.659Z,24.97
2023-07-16T20:02:39.547Z,24.97
2023-07-16T20:05:06.834Z,25.00
2023-07-16T20:07:36.411Z,24.90
2023-07-16T20:10:10.633Z,24.87
2023-07-16T20:12:38.611Z,24.85
2023-07-16T20:15:07.301Z,24.80
2023-07-16T20:17:34.264Z,24.75
2023-07-16T20:20:01.355Z,24.77
2023-07-16T20:22:27.989Z,24.73
2023-07-16T20:24:54.704Z,24.71
2023-07-16T20:27:21.403Z,24.64
2023-07-16T20:29:48.237Z,24.64
2023-07-16T20:32:14.782Z,24.56
2023-07-16T20:34:41.389Z,24.59
2023-07-16T20:37:07.983Z,24.65
2023-07-16T20:39:34.622Z,24.64
2023-07-16T20:42:01.460Z,24.62
2023-07-16T20:44:28.051Z,24.57
2023-07-16T20:46:54.703Z,24.53
2023-07-16T20:49:21.362Z,24.39
2023-07-16T20:51:47.925Z,24.41
2023-07-16T20:54:14.820Z,24.40
2023-07-16T20:56:42.479Z,24.37
2023-07-16T20:59:09.098Z,24.19
2023-07-16T21:01:35.863Z,24.15
2023-07-16T21:04:04.581Z,24.24
2023-07-16T21:06:31.283Z,24.09
2023-07-16T21:08:57.905Z,24.15
2023-07-16T21:11:24.536Z,24.17
2023-07-16T21:13:51.500Z,24.16
2023-07-16T21:16:18.100Z,24.05
2023-07-16T21:18:46.117Z,23.96
2023-07-16T21:21:15.276Z,23.85
2023-07-16T21:23:42.193Z,23.83
2023-07-16T21:26:08.782Z,23.87
2023-07-16T21:28:35.363Z,23.77
2023-07-16T21:31:02.062Z,23.79
2023-07-16T21:33:28.676Z,23.83
2023-07-16T21:35:55.326Z,23.70
2023-07-16T21:38:21.897Z,23.65
2023-07-16T21:40:48.494Z,23.64
2023-07-16T21:43:16.391Z,23.63
2023-07-16T21:45:43.422Z,23.62
2023-07-16T21:48:10.241Z,23.53
2023-07-16T21:50:36.980Z,23.56
2023-07-16T21:53:12.757Z,23.54
2023-07-16T21:55:39.349Z,23.48
2023-07-16T21:58:06.056Z,23.37
2023-07-16T22:00:32.839Z,23.31
2023-07-16T22:02:59.527Z,23.26
2023-07-16T22:05:26.479Z,23.27
2023-07-16T22:07:53.199Z,23.23
2023-07-16T22:10:20.123Z,23.20
2023-07-16T22:12:46.763Z,23.14
2023-07-16T22:15:13.765Z,23.06
2023-07-16T22:17:40.604Z,22.94
2023-07-16T22:20:11.756Z,22.97
2023-07-16T22:22:39.587Z,22.79
2023-07-16T22:25:07.415Z,22.97
2023-07-16T22:27:33.969Z,22.89
2023-07-16T22:30:00.676Z,22.93
2023-07-16T22:32:27.257Z,22.84
2023-07-16T22:34:53.848Z,22.77
2023-07-16T22:37:21.244Z,22.74
2023-07-16T22:39:47.826Z,22.56
2023-07-16T22:42:14.589Z,22.44
2023-07-16T22:44:41.214Z,22.59
2023-07-16T22:47:07.960Z,22.51
2023-07-16T22:49:34.524Z,22.46
2023-07-16T22:52:01.148Z,22.45
2023-07-16T22:54:27.757Z,22.28
2023-07-16T22:56:54.382Z,22.23
2023-07-16T22:59:21.442Z,22.34
2023-07-16T23:01:48.053Z,22.25
2023-07-16T23:04:16.513Z,22.23
2023-07-16T23:06:45.454Z,22.19
2023-07-16T23:09:12.269Z,22.06
2023-07-16T23:11:38.842Z,22.07
2023-07-16T23:14:05.497Z,22.16
2023-07-16T23:16:32.175Z,22.17
2023-07-16T23:18:58.797Z,22.23
2023-07-16T23:21:27.311Z,22.02
2023-07-16T23:23:54.181Z,22.04
2023-07-16T23:26:21.192Z,21.93
2023-07-16T23:28:47.960Z,21.87
2023-07-16T23:31:14.645Z,21.83
2023-07-16T23:33:41.285Z,21.83
2023-07-16T23:36:08.258Z,21.81
2023-07-16T23:38:34.829Z,21.66
2023-07-16T23:41:01.788Z,21.61
2023-07-16T23:43:28.366Z,21.59
2023-07-16T23:45:55.355Z,21.55
2023-07-16T23:48:21.954Z,21.51
2023-07-16T23:50:48.623Z,21.36
2023-07-16T23:53:15.233Z,21.30
2023-07-16T23:55:42.161Z,21.48
2023-07-16T23:58:08.826Z,21.42
